Time;durP1;ratioP1;P1;durP2;ratioP2;P2;SDS_P1;SDS_P2;PMS_P1;PMS_P2;Temp;Humidity;BMP_temperature;BMP_pressure;BME280_temperature;BME280_humidity;BME280_pressure;Samples;Min_cycle;Max_cycle;Signal;HPM_P1;HPM_P2
2022/06/08 00:01:14;;;;;;;2.90;2.40;;;19.40;98.50;;;;;;5064327;28;20232;-69
2022/06/08 00:03:45;;;;;;;3.00;2.27;;;19.40;98.20;;;;;;5050928;28;20271;-69
2022/06/08 00:06:12;;;;;;;2.90;2.40;;;19.40;98.20;;;;;;5088320;28;20234;-69
2022/06/08 00:08:39;;;;;;;2.90;2.23;;;19.30;98.30;;;;;;5078451;28;20254;-71
2022/06/08 00:11:06;;;;;;;3.50;2.57;;;19.30;98.30;;;;;;5064921;28;20638;-68
2022/06/08 00:13:32;;;;;;;3.40;2.50;;;19.30;98.30;;;;;;5050878;28;20203;-70
2022/06/08 00:16:01;;;;;;;3.87;2.43;;;19.30;98.40;;;;;;5051521;28;20258;-69
2022/06/08 00:18:28;;;;;;;4.53;2.27;;;19.20;98.40;;;;;;5050533;28;20219;-69
2022/06/08 00:20:55;;;;;;;3.60;2.47;;;19.20;98.40;;;;;;5066956;28;20200;-70
2022/06/08 00:23:22;;;;;;;5.67;2.63;;;19.20;98.90;;;;;;5088471;28;20206;-71
2022/06/08 00:25:49;;;;;;;2.53;2.30;;;19.20;98.50;;;;;;5091321;28;20214;-69
2022/06/08 00:28:17;;;;;;;3.83;2.50;;;19.10;98.60;;;;;;5089872;28;20199;-70
2022/06/08 00:30:44;;;;;;;3.50;2.50;;;19.10;98.60;;;;;;5067821;28;20200;-69
2022/06/08 00:33:13;;;;;;;3.67;2.53;;;19.10;98.60;;;;;;5049856;28;20204;-68
2022/06/08 00:35:39;;;;;;;4.47;2.57;;;19.10;98.60;;;;;;5053603;28;20201;-69
2022/06/08 00:38:07;;;;;;;3.57;2.37;;;19.10;98.70;;;;;;5057741;28;20303;-69
2022/06/08 00:40:44;;;;;;;5.50;2.50;;;19.00;98.80;;;;;;5053934;28;20207;-70
2022/06/08 00:43:11;;;;;;;4.63;2.67;;;19.00;98.80;;;;;;5054724;28;20216;-70
2022/06/08 00:45:38;;;;;;;5.50;2.90;;;19.00;98.80;;;;;;5053781;28;20570;-68
2022/06/08 00:48:07;;;;;;;3.03;2.40;;;19.00;98.90;;;;;;5054073;28;20258;-71
2022/06/08 00:50:41;;;;;;;4.27;2.63;;;18.90;98.90;;;;;;5054217;28;20623;-70
2022/06/08 00:53:10;;;;;;;4.90;3.00;;;18.90;99.00;;;;;;5053457;28;20204;-70
2022/06/08 00:55:39;;;;;;;3.67;2.70;;;18.90;99.00;;;;;;5053551;28;20294;-70
2022/06/08 00:58:11;;;;;;;4.10;2.70;;;18.90;99.00;;;;;;5053157;28;20227;-70
2022/06/08 01:00:40;;;;;;;6.43;2.63;;;18.90;99.10;;;;;;5071903;28;20199;-69
2022/06/08 01:03:09;;;;;;;3.80;2.67;;;18.80;99.10;;;;;;5072418;28;20229;-69
2022/06/08 01:05:44;;;;;;;4.67;3.10;;;18.80;99.30;;;;;;5072303;28;20216;-70
2022/06/08 01:08:23;;;;;;;3.93;2.70;;;18.80;99.40;;;;;;5072655;28;20194;-69
2022/06/08 01:10:53;;;;;;;4.27;2.70;;;18.70;99.30;;;;;;5072378;28;20291;-68
2022/06/08 01:13:21;;;;;;;3.40;2.70;;;18.70;99.80;;;;;;5072493;28;20191;-70
2022/06/08 01:15:49;;;;;;;5.10;2.93;;;18.70;99.50;;;;;;5072879;28;20208;-70
2022/06/08 01:18:16;;;;;;;4.13;2.40;;;18.60;99.50;;;;;;5071787;28;20225;-69
2022/06/08 01:20:46;;;;;;;4.23;2.70;;;18.60;99.50;;;;;;5072232;28;20201;-70
2022/06/08 01:23:15;;;;;;;3.60;2.60;;;18.60;99.60;;;;;;5071787;28;20200;-69
2022/06/08 01:25:54;;;;;;;4.63;2.93;;;18.60;99.60;;;;;;5072434;28;20293;-69
2022/06/08 01:28:27;;;;;;;3.93;2.90;;;18.60;99.60;;;;;;5072160;28;20603;-70
2022/06/08 01:30:59;;;;;;;9.10;3.33;;;18.60;99.70;;;;;;5072401;28;20836;-70
2022/06/08 01:33:54;;;;;;;4.07;2.70;;;18.60;99.70;;;;;;5060679;28;20195;-70
2022/06/08 01:36:37;;;;;;;4.87;3.00;;;18.60;99.80;;;;;;5071383;28;20190;-69
2022/06/08 01:39:11;;;;;;;4.20;2.87;;;18.60;99.80;;;;;;5072278;28;20187;-69
2022/06/08 01:42:17;;;;;;;3.63;2.60;;;18.50;99.80;;;;;;5053621;28;20575;-69
2022/06/08 01:48:04;;;;;;;3.43;2.47;;;18.60;99.80;;;;;;5071165;28;20274;-70
2022/06/08 01:50:41;;;;;;;2.93;2.30;;;18.60;99.80;;;;;;5071713;28;20198;-70
2022/06/08 01:53:17;;;;;;;3.27;2.57;;;18.60;99.80;;;;;;5052490;28;20193;-69
2022/06/08 01:55:50;;;;;;;3.27;2.40;;;18.60;99.70;;;;;;5052552;28;20203;-70
2022/06/08 01:58:22;;;;;;;3.83;2.50;;;18.60;99.70;;;;;;5052390;28;20221;-69
2022/06/08 02:00:57;;;;;;;3.50;2.60;;;18.60;99.70;;;;;;5052485;28;20195;-69
2022/06/08 02:03:29;;;;;;;3.73;2.50;;;18.60;99.60;;;;;;5060096;28;20227;-68
2022/06/08 02:06:01;;;;;;;3.87;2.60;;;18.60;99.60;;;;;;5071756;28;20192;-71
2022/06/08 02:08:35;;;;;;;5.00;2.60;;;18.60;99.60;;;;;;5071377;28;20195;-70
2022/06/08 02:11:12;;;;;;;2.33;2.13;;;18.60;99.60;;;;;;5052040;28;20198;-69
2022/06/08 02:13:44;;;;;;;3.40;2.27;;;18.60;99.70;;;;;;5052701;28;20284;-69
2022/06/08 02:16:17;;;;;;;4.67;2.70;;;18.70;99.70;;;;;;5051727;28;20537;-69
2022/06/08 02:18:47;;;;;;;3.40;2.60;;;18.70;99.70;;;;;;5051965;28;20545;-70
2022/06/08 02:21:19;;;;;;;4.53;2.50;;;18.70;99.60;;;;;;5051911;28;20609;-69
2022/06/08 02:23:50;;;;;;;2.83;2.40;;;18.70;99.60;;;;;;5052262;28;20192;-70
2022/06/08 02:26:22;;;;;;;2.53;2.30;;;18.80;99.70;;;;;;5051852;28;20195;-69
2022/06/08 02:28:53;;;;;;;3.67;2.50;;;18.80;99.70;;;;;;5051752;28;20266;-69
2022/06/08 02:31:23;;;;;;;3.13;2.20;;;18.90;99.70;;;;;;5051827;28;20195;-69
2022/06/08 02:36:43;;;;;;;4.37;2.30;;;19.00;99.70;;;;;;5069408;28;20192;-70
2022/06/08 02:39:15;;;;;;;3.83;2.33;;;19.10;99.70;;;;;;5070721;28;20211;-70
2022/06/08 02:41:46;;;;;;;2.47;2.10;;;19.10;99.60;;;;;;5070597;28;20231;-69
2022/06/08 02:44:20;;;;;;;3.13;2.37;;;19.20;99.60;;;;;;5070710;28;20304;-69
2022/06/08 02:46:54;;;;;;;3.57;2.13;;;19.30;99.70;;;;;;5071026;28;20241;-69
2022/06/08 02:49:20;;;;;;;2.80;2.20;;;19.30;99.60;;;;;;5071108;28;20634;-69
2022/06/08 02:51:50;;;;;;;4.67;2.17;;;19.40;99.50;;;;;;5070529;28;20193;-70
2022/06/08 02:54:20;;;;;;;4.67;2.03;;;19.40;99.40;;;;;;5070576;28;20197;-70
2022/06/08 02:56:58;;;;;;;3.27;2.30;;;19.50;99.40;;;;;;5069803;28;20200;-70
2022/06/08 02:59:34;;;;;;;2.53;1.93;;;19.60;99.40;;;;;;5070118;28;20209;-70
2022/06/08 03:02:05;;;;;;;2.90;2.20;;;19.60;99.30;;;;;;5070308;28;20600;-68
2022/06/08 03:04:37;;;;;;;3.13;2.33;;;19.70;99.40;;;;;;5070088;28;20655;-69
2022/06/08 03:07:11;;;;;;;4.53;2.53;;;19.80;99.90;;;;;;5069822;28;20205;-70
2022/06/08 03:09:40;;;;;;;3.63;2.57;;;19.80;99.90;;;;;;5070238;28;20221;-70
2022/06/08 03:12:15;;;;;;;3.70;2.50;;;19.80;99.90;;;;;;5069952;28;20200;-70
2022/06/08 03:14:42;;;;;;;2.83;2.43;;;19.80;99.90;;;;;;5070633;28;20520;-69
2022/06/08 03:17:10;;;;;;;3.73;2.70;;;19.90;99.90;;;;;;5067284;28;20206;-72
2022/06/08 03:19:38;;;;;;;2.97;2.40;;;19.90;99.90;;;;;;5052007;28;20206;-70
2022/06/08 03:22:06;;;;;;;4.00;2.50;;;19.90;99.90;;;;;;5051851;28;20632;-70
2022/06/08 03:24:34;;;;;;;2.73;2.10;;;20.00;99.90;;;;;;5051826;28;20210;-69
2022/06/08 03:27:08;;;;;;;4.20;2.77;;;20.00;99.90;;;;;;5051256;28;20264;-72
2022/06/08 03:29:37;;;;;;;3.33;2.70;;;20.00;99.90;;;;;;5052040;28;20192;-69
2022/06/08 03:32:04;;;;;;;4.43;2.43;;;20.00;99.90;;;;;;5051929;28;20201;-70
2022/06/08 03:34:32;;;;;;;3.90;2.37;;;20.10;99.90;;;;;;5052055;28;20292;-71
2022/06/08 03:36:59;;;;;;;6.60;3.17;;;20.20;99.90;;;;;;5051640;28;20209;-70
2022/06/08 03:39:26;;;;;;;4.63;3.00;;;20.20;99.90;;;;;;5070728;28;20274;-69
2022/06/08 03:41:53;;;;;;;4.30;2.77;;;20.30;99.90;;;;;;5071610;28;20295;-71
2022/06/08 03:44:20;;;;;;;3.67;2.30;;;20.30;99.90;;;;;;5071487;28;20214;-70
2022/06/08 03:46:51;;;;;;;4.63;2.40;;;20.40;99.90;;;;;;5071050;28;20197;-70
2022/06/08 03:49:19;;;;;;;5.57;2.50;;;20.50;99.90;;;;;;5070680;28;20231;-71
2022/06/08 03:51:47;;;;;;;5.43;2.70;;;20.50;99.90;;;;;;5071544;28;20206;-70
2022/06/08 03:54:17;;;;;;;4.17;2.80;;;20.60;99.90;;;;;;5071049;28;20200;-70
2022/06/08 03:56:48;;;;;;;4.57;2.83;;;20.60;99.90;;;;;;5058797;28;20212;-71
2022/06/08 03:59:15;;;;;;;5.87;2.47;;;20.70;99.90;;;;;;5051297;28;20213;-71
2022/06/08 04:01:44;;;;;;;6.93;2.77;;;20.80;99.90;;;;;;5051461;28;20211;-70
2022/06/08 04:04:12;;;;;;;5.83;2.70;;;20.90;99.90;;;;;;5050959;28;20636;-70
2022/06/08 04:06:39;;;;;;;4.83;3.00;;;21.00;99.90;;;;;;5062321;28;20283;-70
2022/06/08 04:09:06;;;;;;;6.63;2.90;;;21.10;99.90;;;;;;5070296;28;20207;-70
2022/06/08 04:11:33;;;;;;;4.60;2.90;;;21.20;99.90;;;;;;5071150;28;20573;-69
2022/06/08 04:14:01;;;;;;;4.07;2.43;;;21.30;99.50;;;;;;5071023;28;20776;-71
2022/06/08 04:16:28;;;;;;;4.93;2.47;;;21.40;99.20;;;;;;5061350;28;20198;-70
2022/06/08 04:18:56;;;;;;;4.67;2.43;;;21.50;99.00;;;;;;5052102;28;20228;-70
2022/06/08 04:21:24;;;;;;;2.87;2.30;;;21.60;98.60;;;;;;5051067;28;20263;-70
2022/06/08 04:23:51;;;;;;;3.27;2.13;;;21.80;98.40;;;;;;5052059;28;20655;-70
2022/06/08 04:26:19;;;;;;;5.50;2.40;;;21.90;98.20;;;;;;5051025;28;20205;-70
2022/06/08 04:28:47;;;;;;;3.00;2.40;;;22.00;98.10;;;;;;5051628;28;20580;-70
2022/06/08 04:31:14;;;;;;;3.57;2.40;;;22.10;97.80;;;;;;5061234;28;20287;-70
2022/06/08 04:33:42;;;;;;;2.33;1.90;;;22.30;97.70;;;;;;5071295;28;20225;-70
2022/06/08 04:36:09;;;;;;;4.90;2.10;;;22.40;97.50;;;;;;5071029;28;20211;-71
2022/06/08 04:38:37;;;;;;;2.47;2.00;;;22.50;97.30;;;;;;5069427;28;20268;-71
2022/06/08 04:41:05;;;;;;;3.00;2.10;;;22.70;96.90;;;;;;5051106;28;20217;-71
2022/06/08 04:43:32;;;;;;;2.90;1.93;;;22.80;96.70;;;;;;5051091;28;20214;-71
2022/06/08 04:45:59;;;;;;;4.13;2.20;;;22.90;96.50;;;;;;5051131;28;20239;-69
2022/06/08 04:48:26;;;;;;;4.40;2.10;;;23.00;96.50;;;;;;5050850;28;20207;-71
2022/06/08 04:50:53;;;;;;;4.20;2.50;;;23.20;96.60;;;;;;5070556;28;20229;-72
2022/06/08 04:53:20;;;;;;;4.67;3.10;;;23.30;96.80;;;;;;5071269;28;20670;-69
2022/06/08 04:55:49;;;;;;;3.77;2.50;;;23.40;96.90;;;;;;5059221;28;20207;-70
2022/06/08 04:58:16;;;;;;;12.80;2.60;;;23.50;96.80;;;;;;5052619;28;20322;-69
2022/06/08 05:00:43;;;;;;;4.80;2.23;;;23.50;96.70;;;;;;5051568;28;20195;-70
2022/06/08 05:03:11;;;;;;;3.57;2.13;;;23.60;96.60;;;;;;5050356;28;20356;-71
2022/06/08 05:05:39;;;;;;;5.20;3.50;;;23.70;96.50;;;;;;5049964;28;20194;-72
2022/06/08 05:08:08;;;;;;;4.63;3.43;;;23.80;96.60;;;;;;5053841;28;20749;-70
2022/06/08 05:10:35;;;;;;;4.97;3.10;;;23.90;96.00;;;;;;5070137;28;20206;-71
2022/06/08 05:13:05;;;;;;;5.70;2.33;;;24.00;95.70;;;;;;5064045;28;20299;-71
2022/06/08 05:15:35;;;;;;;6.03;2.27;;;24.00;95.30;;;;;;5050725;28;20210;-70
2022/06/08 05:18:02;;;;;;;3.10;2.00;;;24.10;95.20;;;;;;5050743;28;20208;-70
2022/06/08 05:20:30;;;;;;;4.30;2.00;;;24.20;95.00;;;;;;5052233;28;20252;-71
2022/06/08 05:22:57;;;;;;;8.83;2.30;;;24.30;95.10;;;;;;5054585;28;20307;-71
2022/06/08 05:25:28;;;;;;;3.20;2.20;;;24.40;94.90;;;;;;5061955;28;20200;-71
2022/06/08 05:27:55;;;;;;;5.27;2.30;;;24.50;94.80;;;;;;5074208;28;20243;-72
2022/06/08 05:30:25;;;;;;;3.07;2.10;;;24.60;94.70;;;;;;5074676;28;20204;-71
2022/06/08 05:32:52;;;;;;;4.20;2.20;;;24.70;94.90;;;;;;5074479;28;20657;-70
2022/06/08 05:35:20;;;;;;;5.10;2.13;;;24.80;94.90;;;;;;5074514;28;20230;-71
2022/06/08 05:37:47;;;;;;;3.90;2.57;;;24.90;94.60;;;;;;5073863;28;20305;-70
2022/06/08 05:40:14;;;;;;;5.60;2.33;;;24.90;94.50;;;;;;5074088;28;20316;-70
2022/06/08 05:42:42;;;;;;;2.77;2.17;;;25.00;94.50;;;;;;5074052;28;20234;-70
2022/06/08 05:45:13;;;;;;;4.37;2.30;;;25.10;94.40;;;;;;5073863;28;20204;-72
2022/06/08 05:47:41;;;;;;;5.65;2.00;;;25.10;94.10;;;;;;5073924;28;20302;-71
2022/06/08 05:50:09;;;;;;;5.03;2.35;;;25.10;93.90;;;;;;5070809;28;20283;-73
2022/06/08 05:52:36;;;;;;;6.65;2.38;;;25.20;93.90;;;;;;5054300;28;20664;-71
2022/06/08 05:55:03;;;;;;;7.07;2.08;;;25.30;94.20;;;;;;5063408;28;20196;-72
2022/06/08 05:57:30;;;;;;;7.40;2.13;;;25.40;93.80;;;;;;5074401;28;20659;-72
2022/06/08 05:59:57;;;;;;;7.32;2.10;;;25.40;93.70;;;;;;5071903;28;20233;-74
2022/06/08 06:02:24;;;;;;;2.70;1.85;;;25.50;93.60;;;;;;5054486;28;20238;-71
2022/06/08 06:04:52;;;;;;;3.83;1.80;;;25.60;93.40;;;;;;5068946;28;20255;-71
2022/06/08 06:07:20;;;;;;;4.13;2.17;;;25.60;93.20;;;;;;5072898;28;20211;-71
2022/06/08 06:09:47;;;;;;;10.30;2.27;;;25.70;93.00;;;;;;5059112;28;20196;-70
2022/06/08 06:12:13;;;;;;;2.47;1.77;;;25.70;92.90;;;;;;5053051;28;20616;-72
2022/06/08 06:14:40;;;;;;;3.90;1.80;;;25.80;92.60;;;;;;5053373;28;20747;-71
2022/06/08 06:17:07;;;;;;;8.07;1.90;;;25.80;92.50;;;;;;5053514;28;20390;-76
2022/06/08 06:19:34;;;;;;;2.58;1.67;;;25.90;92.30;;;;;;5052442;28;20655;-71
2022/06/08 06:22:02;;;;;;;3.35;1.83;;;25.90;92.10;;;;;;5053319;28;20231;-71
2022/06/08 06:24:30;;;;;;;1.80;1.70;;;26.00;91.80;;;;;;5053779;28;20632;-73
2022/06/08 06:26:56;;;;;;;3.15;1.88;;;26.00;91.50;;;;;;5053361;28;20204;-72
2022/06/08 06:29:24;;;;;;;2.60;1.80;;;26.10;91.40;;;;;;5053041;28;20194;-71
2022/06/08 06:31:56;;;;;;;3.60;1.35;;;26.20;90.60;;;;;;5051878;28;20568;-70
2022/06/08 06:34:25;;;;;;;1.90;1.52;;;26.20;89.80;;;;;;5052776;28;20282;-71
2022/06/08 06:36:54;;;;;;;5.13;2.00;;;26.20;89.20;;;;;;5052629;28;20211;-71
2022/06/08 06:39:23;;;;;;;4.95;2.20;;;26.20;89.20;;;;;;5052843;28;20289;-71
2022/06/08 06:41:50;;;;;;;6.95;3.38;;;26.20;89.70;;;;;;5052680;28;20266;-71
2022/06/08 06:44:18;;;;;;;10.98;6.72;;;26.20;89.70;;;;;;5052601;28;20246;-71
2022/06/08 06:46:44;;;;;;;8.23;5.85;;;26.30;89.00;;;;;;5052300;28;20292;-72
2022/06/08 06:49:12;;;;;;;11.65;5.90;;;26.30;89.70;;;;;;5059191;28;20287;-72
2022/06/08 06:51:40;;;;;;;7.70;4.88;;;26.30;89.30;;;;;;5092834;28;20263;-71
2022/06/08 06:54:09;;;;;;;8.95;5.22;;;26.40;88.60;;;;;;5081863;28;20211;-71
2022/06/08 06:56:37;;;;;;;7.40;5.03;;;26.40;88.90;;;;;;5072573;28;20264;-72
2022/06/08 06:59:05;;;;;;;8.18;4.00;;;26.50;89.00;;;;;;5055086;28;20220;-72
2022/06/08 07:01:34;;;;;;;4.15;3.22;;;26.50;89.10;;;;;;5058467;28;20263;-72
2022/06/08 07:04:01;;;;;;;5.60;2.72;;;26.60;88.50;;;;;;5057670;28;20238;-71
2022/06/08 07:06:29;;;;;;;4.18;3.22;;;26.70;88.60;;;;;;5052101;28;20303;-71
2022/06/08 07:08:59;;;;;;;4.25;2.95;;;26.70;88.00;;;;;;5052414;28;20202;-71
2022/06/08 07:11:40;;;;;;;11.00;3.00;;;26.80;87.10;;;;;;5052332;28;20202;-72
2022/06/08 07:14:13;;;;;;;7.15;2.45;;;26.80;87.00;;;;;;5052257;28;20199;-71
2022/06/08 07:16:40;;;;;;;6.68;2.78;;;26.90;86.90;;;;;;5063171;28;20670;-73
2022/06/08 07:19:08;;;;;;;23.23;3.63;;;26.90;86.30;;;;;;5071858;28;20312;-71
2022/06/08 07:21:35;;;;;;;35.22;4.55;;;27.00;85.90;;;;;;5070116;28;20230;-71
2022/06/08 07:24:02;;;;;;;10.90;2.55;;;27.00;85.70;;;;;;5072142;28;20299;-71
2022/06/08 07:26:29;;;;;;;2.30;1.75;;;27.10;86.10;;;;;;5072102;28;20686;-73
2022/06/08 07:28:57;;;;;;;2.20;1.63;;;27.10;85.80;;;;;;5071829;28;20210;-70
2022/06/08 07:31:26;;;;;;;1.83;1.60;;;27.10;85.70;;;;;;5061856;28;20204;-71
2022/06/08 07:33:53;;;;;;;2.22;1.63;;;27.20;84.90;;;;;;5057307;28;20204;-72
2022/06/08 07:36:21;;;;;;;12.55;2.25;;;27.20;84.70;;;;;;5071885;28;20203;-70
2022/06/08 07:38:48;;;;;;;10.25;3.08;;;27.20;84.60;;;;;;5072142;28;20212;-72
2022/06/08 07:41:15;;;;;;;2.22;1.70;;;27.30;84.40;;;;;;5063583;28;20617;-73
2022/06/08 07:43:42;;;;;;;4.13;1.70;;;27.20;82.70;;;;;;5071364;28;20278;-71
2022/06/08 07:46:09;;;;;;;2.70;1.73;;;27.20;82.90;;;;;;5071773;28;20276;-70
2022/06/08 07:51:22;;;;;;;7.95;2.00;;;27.20;83.50;;;;;;5062588;28;20254;-72
2022/06/08 07:53:48;;;;;;;37.40;3.88;;;27.20;83.50;;;;;;5052074;28;20283;-71
2022/06/08 07:56:16;;;;;;;9.07;3.33;;;27.40;84.40;;;;;;5051840;28;20290;-72
2022/06/08 07:58:43;;;;;;;6.07;2.10;;;27.40;84.50;;;;;;5058080;28;20310;-71
2022/06/08 08:01:10;;;;;;;5.45;1.67;;;27.60;84.60;;;;;;5071640;28;20744;-73
2022/06/08 08:03:38;;;;;;;5.97;1.90;;;27.70;83.90;;;;;;5070812;28;20265;-72
2022/06/08 08:06:06;;;;;;;9.27;2.30;;;27.80;84.30;;;;;;5071438;28;20548;-73
2022/06/08 08:08:34;;;;;;;3.15;1.67;;;27.90;82.40;;;;;;5055931;28;20239;-71
2022/06/08 08:11:00;;;;;;;4.00;1.70;;;27.90;82.30;;;;;;5066083;28;20196;-71
2022/06/08 08:13:27;;;;;;;4.32;1.85;;;28.00;82.20;;;;;;5067391;28;20235;-71
2022/06/08 08:15:54;;;;;;;3.45;1.73;;;28.10;81.90;;;;;;5070966;28;20208;-71
2022/06/08 08:18:21;;;;;;;2.03;1.70;;;28.10;81.30;;;;;;5070861;28;20306;-71
2022/06/08 08:20:49;;;;;;;2.38;2.00;;;28.10;80.90;;;;;;5059467;28;20265;-72
2022/06/08 08:23:17;;;;;;;3.47;2.00;;;28.00;81.00;;;;;;5050604;28;20272;-72
2022/06/08 08:25:44;;;;;;;2.58;1.75;;;28.10;81.40;;;;;;5051281;28;20598;-71
2022/06/08 08:28:11;;;;;;;1.60;1.40;;;28.10;80.90;;;;;;5051181;28;20273;-73
2022/06/08 08:30:38;;;;;;;3.22;1.40;;;28.10;80.20;;;;;;5060815;28;20194;-71
2022/06/08 08:33:05;;;;;;;36.97;3.97;;;28.20;78.50;;;;;;5070312;28;20856;-72
2022/06/08 08:35:32;;;;;;;4.35;2.25;;;28.10;79.30;;;;;;5070836;28;20207;-71
2022/06/08 08:38:01;;;;;;;2.90;1.60;;;28.10;79.00;;;;;;5059425;28;20635;-73
2022/06/08 08:40:45;;;;;;;10.65;2.30;;;28.10;77.80;;;;;;5050800;28;20227;-72
2022/06/08 08:43:14;;;;;;;7.25;2.08;;;28.20;77.90;;;;;;5051008;28;20299;-72
2022/06/08 08:45:50;;;;;;;7.07;2.00;;;28.30;77.90;;;;;;5050772;28;20789;-71
2022/06/08 08:48:25;;;;;;;3.15;1.80;;;28.30;76.60;;;;;;5050291;28;20279;-71
2022/06/08 08:50:59;;;;;;;8.88;2.05;;;28.40;77.40;;;;;;5050773;28;20627;-72
2022/06/08 08:53:35;;;;;;;7.15;2.38;;;28.50;76.90;;;;;;5064826;28;20581;-72
2022/06/08 08:56:06;;;;;;;2.40;1.77;;;28.60;77.70;;;;;;5073413;28;20637;-70
2022/06/08 08:58:37;;;;;;;5.50;2.00;;;28.50;77.40;;;;;;5074484;28;20556;-71
2022/06/08 09:01:14;;;;;;;3.05;2.20;;;28.50;77.50;;;;;;5074615;28;20298;-71
2022/06/08 09:03:44;;;;;;;2.70;1.70;;;28.50;77.40;;;;;;5058545;28;20344;-72
2022/06/08 09:06:14;;;;;;;1.95;1.60;;;28.50;77.00;;;;;;5054575;28;20606;-71
2022/06/08 09:08:45;;;;;;;2.03;1.80;;;28.40;77.30;;;;;;5055266;28;20196;-72
2022/06/08 09:11:17;;;;;;;2.03;1.58;;;28.30;77.70;;;;;;5054176;28;20200;-71
2022/06/08 09:13:49;;;;;;;2.30;1.73;;;28.20;77.50;;;;;;5054288;28;20198;-71
2022/06/08 09:16:35;;;;;;;3.25;1.60;;;28.20;78.00;;;;;;5053918;28;20203;-71
2022/06/08 09:19:03;;;;;;;3.70;1.70;;;28.10;78.00;;;;;;5061320;28;20201;-71
2022/06/08 09:21:33;;;;;;;1.65;1.50;;;28.10;78.40;;;;;;5074055;28;20206;-71
2022/06/08 09:24:07;;;;;;;2.13;1.75;;;28.20;78.40;;;;;;5074370;28;20312;-71
2022/06/08 09:26:39;;;;;;;2.13;1.75;;;28.30;77.60;;;;;;5074472;28;20277;-70
2022/06/08 09:29:16;;;;;;;4.38;1.63;;;28.30;77.70;;;;;;5065691;28;20196;-72
2022/06/08 09:31:43;;;;;;;3.85;1.92;;;28.40;77.40;;;;;;5054111;28;20195;-73
2022/06/08 09:34:19;;;;;;;2.03;1.50;;;28.50;77.60;;;;;;5053821;28;20731;-71
2022/06/08 09:37:03;;;;;;;1.60;1.50;;;28.40;76.50;;;;;;5057903;28;20200;-71
2022/06/08 09:39:32;;;;;;;3.70;1.88;;;28.50;77.00;;;;;;5054368;28;20727;-71
2022/06/08 09:42:01;;;;;;;1.90;1.70;;;28.50;77.50;;;;;;5061362;28;20679;-73
2022/06/08 09:44:30;;;;;;;1.83;1.63;;;28.50;78.10;;;;;;5053113;28;20224;-71
2022/06/08 09:53:05;;;;;;;1.92;1.70;;;28.40;77.90;;;;;;5053259;28;20365;-76
2022/06/08 09:55:46;;;;;;;3.38;1.67;;;28.30;75.90;;;;;;5053805;28;20698;-72
2022/06/08 09:58:26;;;;;;;3.08;1.70;;;28.30;76.00;;;;;;5053408;28;20199;-71
2022/06/08 10:00:58;;;;;;;15.32;2.38;;;28.30;77.30;;;;;;5053621;28;20215;-71
2022/06/08 10:03:50;;;;;;;1.70;1.60;;;28.20;77.80;;;;;;5053429;28;20317;-72
2022/06/08 10:06:27;;;;;;;4.47;1.65;;;28.20;77.20;;;;;;5052343;28;20630;-71
2022/06/08 10:09:02;;;;;;;4.70;1.77;;;28.10;78.10;;;;;;5061769;28;20542;-71
2022/06/08 10:11:41;;;;;;;46.70;5.18;;;28.00;78.20;;;;;;5082737;28;20197;-71
2022/06/08 10:14:19;;;;;;;6.35;2.17;;;27.90;79.50;;;;;;5078915;28;20607;-71
2022/06/08 10:16:50;;;;;;;16.10;2.40;;;27.80;80.40;;;;;;5073125;28;20201;-71
2022/06/08 10:19:23;;;;;;;7.80;2.10;;;27.70;78.70;;;;;;5073353;28;20222;-72
2022/06/08 10:21:52;;;;;;;5.57;2.00;;;27.60;81.20;;;;;;5073554;28;20289;-70
2022/06/08 10:24:24;;;;;;;4.03;1.90;;;27.60;80.70;;;;;;5071105;28;20979;-72
2022/06/08 10:26:57;;;;;;;5.07;2.17;;;27.60;79.60;;;;;;5069273;28;20290;-70
2022/06/08 10:29:31;;;;;;;4.93;2.70;;;27.50;79.40;;;;;;5062015;28;20224;-71
2022/06/08 10:32:03;;;;;;;2.33;1.90;;;27.50;78.90;;;;;;5079254;28;20196;-70
2022/06/08 10:34:32;;;;;;;72.97;7.57;;;27.40;79.50;;;;;;5053069;28;20290;-70
2022/06/08 10:37:04;;;;;;;11.60;2.40;;;27.40;79.00;;;;;;5052884;28;20240;-70
2022/06/08 10:39:33;;;;;;;6.55;2.13;;;27.40;78.90;;;;;;5059806;28;20247;-70
2022/06/08 10:45:38;;;;;;;3.45;2.00;;;27.60;80.80;;;;;;5058142;28;20240;-71
2022/06/08 10:48:41;;;;;;;7.32;2.13;;;27.60;80.10;;;;;;5052975;28;20187;-71
2022/06/08 10:51:45;;;;;;;6.22;2.00;;;27.60;80.20;;;;;;5052031;28;20192;-69
2022/06/08 10:54:54;;;;;;;9.52;2.33;;;27.50;80.50;;;;;;5052363;28;20244;-70
2022/06/08 10:57:49;;;;;;;2.38;1.50;;;27.60;80.60;;;;;;5052249;28;20204;-69
2022/06/08 11:00:27;;;;;;;6.43;1.70;;;27.80;79.40;;;;;;5052508;28;20768;-71
2022/06/08 11:03:01;;;;;;;3.92;1.90;;;27.80;79.50;;;;;;5059833;28;20312;-69
2022/06/08 11:05:34;;;;;;;9.82;2.17;;;27.80;79.60;;;;;;5064070;28;20703;-69
2022/06/08 11:08:20;;;;;;;11.20;2.00;;;27.70;79.90;;;;;;5057955;28;20202;-70
2022/06/08 11:11:01;;;;;;;4.70;1.90;;;27.80;78.10;;;;;;5064059;28;20186;-69
2022/06/08 11:13:35;;;;;;;1.77;1.63;;;27.80;78.60;;;;;;5052037;28;20291;-71
2022/06/08 11:16:11;;;;;;;23.13;3.75;;;27.80;78.80;;;;;;5060080;28;20248;-69
2022/06/08 11:18:42;;;;;;;25.60;3.60;;;27.90;80.00;;;;;;5062761;28;20273;-69
2022/06/08 11:21:37;;;;;;;9.05;2.20;;;27.90;78.60;;;;;;5071989;28;20217;-70
2022/06/08 11:24:14;;;;;;;2.78;1.70;;;27.90;78.20;;;;;;5071876;28;20189;-70
2022/06/08 11:26:51;;;;;;;1.90;1.58;;;27.90;78.50;;;;;;5069807;28;20200;-70
2022/06/08 11:29:51;;;;;;;3.13;1.45;;;27.90;78.60;;;;;;5060933;28;20308;-69
2022/06/08 11:32:45;;;;;;;8.68;2.28;;;27.90;78.40;;;;;;5071730;28;20245;-70
2022/06/08 11:35:43;;;;;;;5.22;1.70;;;27.90;77.60;;;;;;5061888;28;20203;-71
2022/06/08 11:38:19;;;;;;;5.38;2.30;;;28.00;78.00;;;;;;5051727;28;20250;-69
2022/06/08 11:40:47;;;;;;;3.10;1.70;;;28.10;77.80;;;;;;5053600;28;20297;-70
2022/06/08 11:43:34;;;;;;;4.50;1.85;;;28.00;77.20;;;;;;5051718;28;20293;-71
2022/06/08 11:46:05;;;;;;;12.90;2.60;;;27.90;78.40;;;;;;5051656;28;20190;-68
2022/06/08 11:48:47;;;;;;;7.38;2.00;;;27.90;78.70;;;;;;5059053;28;20199;-68
2022/06/08 11:51:34;;;;;;;15.65;3.03;;;27.80;78.70;;;;;;5071507;28;20217;-67
2022/06/08 11:54:17;;;;;;;8.15;1.98;;;27.70;79.20;;;;;;5051787;28;20199;-71
2022/06/08 11:56:55;;;;;;;2.92;1.83;;;27.70;77.20;;;;;;5051428;28;20269;-67
2022/06/08 11:59:22;;;;;;;4.18;1.90;;;27.70;77.10;;;;;;5051722;28;20286;-68
2022/06/08 12:01:54;;;;;;;1.75;1.50;;;27.70;76.70;;;;;;5050828;28;20229;-67
2022/06/08 12:04:24;;;;;;;3.78;1.80;;;27.80;76.30;;;;;;5051367;28;20436;-73
2022/06/08 12:06:56;;;;;;;5.78;1.83;;;27.80;76.10;;;;;;5051051;28;20724;-65
2022/06/08 12:09:26;;;;;;;14.05;2.85;;;27.90;77.70;;;;;;5051024;28;20212;-68
2022/06/08 12:11:55;;;;;;;4.60;1.90;;;28.00;77.30;;;;;;5050666;28;20185;-67
2022/06/08 12:14:27;;;;;;;4.25;1.77;;;28.00;76.90;;;;;;5051123;28;20296;-68
2022/06/08 12:16:59;;;;;;;6.20;1.90;;;28.00;78.60;;;;;;5051041;28;20195;-67
2022/06/08 12:19:29;;;;;;;2.05;1.70;;;28.00;78.00;;;;;;5051315;28;20196;-69
2022/06/08 12:22:17;;;;;;;2.67;1.77;;;28.10;77.70;;;;;;5050764;28;20262;-68
2022/06/08 12:24:45;;;;;;;3.75;1.88;;;28.20;76.40;;;;;;5050762;28;20194;-68
2022/06/08 12:27:30;;;;;;;1.90;1.70;;;28.30;75.50;;;;;;5050874;28;20205;-68
2022/06/08 12:29:59;;;;;;;2.47;1.50;;;28.30;75.30;;;;;;5050469;28;20273;-68
2022/06/08 12:32:36;;;;;;;2.83;1.50;;;28.30;75.50;;;;;;5050862;28;20301;-70
2022/06/08 12:35:23;;;;;;;4.85;1.90;;;28.30;75.80;;;;;;5051190;28;20192;-68
2022/06/08 12:38:01;;;;;;;17.42;2.45;;;28.40;75.80;;;;;;5050964;28;20200;-70
2022/06/08 12:40:32;;;;;;;12.85;3.53;;;28.40;76.00;;;;;;5050924;28;20390;-68
2022/06/08 12:43:16;;;;;;;9.88;2.30;;;28.30;74.50;;;;;;5055815;28;20252;-68
2022/06/08 12:45:46;;;;;;;3.13;1.83;;;28.20;75.00;;;;;;5050941;28;20683;-68
2022/06/08 12:48:30;;;;;;;2.40;1.88;;;28.10;75.90;;;;;;5051282;28;20223;-69
2022/06/08 12:51:02;;;;;;;4.55;1.70;;;28.10;76.00;;;;;;5049640;28;20192;-70
2022/06/08 12:53:29;;;;;;;3.78;1.80;;;28.10;75.30;;;;;;5051492;28;20553;-68
2022/06/08 12:55:56;;;;;;;3.90;2.13;;;28.10;75.30;;;;;;5050886;28;20730;-67
2022/06/08 12:58:24;;;;;;;13.75;2.30;;;28.20;75.20;;;;;;5050687;28;20206;-68
2022/06/08 13:00:54;;;;;;;3.72;1.70;;;28.20;75.60;;;;;;5050865;28;20293;-69
2022/06/08 13:03:25;;;;;;;1.95;1.50;;;28.30;75.40;;;;;;5055925;28;20776;-68
2022/06/08 13:05:56;;;;;;;3.22;1.60;;;28.40;74.30;;;;;;5069008;28;20204;-69
2022/06/08 13:08:25;;;;;;;4.55;1.83;;;28.40;73.70;;;;;;5059998;28;20611;-70
2022/06/08 13:10:55;;;;;;;1.85;1.50;;;28.50;74.40;;;;;;5049390;28;20212;-72
2022/06/08 13:13:24;;;;;;;3.90;2.10;;;28.50;74.10;;;;;;5050635;28;20256;-71
2022/06/08 13:15:53;;;;;;;3.00;1.92;;;28.50;73.60;;;;;;5051262;28;20204;-70
2022/06/08 13:18:24;;;;;;;2.55;1.70;;;28.50;73.60;;;;;;5051408;28;20215;-70
2022/06/08 13:20:54;;;;;;;2.78;2.17;;;28.50;73.80;;;;;;5051160;28;20266;-73
2022/06/08 13:23:22;;;;;;;8.00;2.30;;;28.60;73.80;;;;;;5051293;28;20204;-72
2022/06/08 13:25:52;;;;;;;3.00;1.50;;;28.60;73.40;;;;;;5053239;28;20362;-72